NKS2203 KIND-KFLL
Flight info
| Callsign | NKS2203 |
|---|---|
| Flight time | 2h 14m |
| Altitude | 37000 |
| Route | DAWNN1 IIU Q79 ZPLEN TEEKY4 |
| Aircraft | A320/M-SDE3FGHIRWY/LB1 |
Departure
| Time | 2026-05-03 21:43 |
|---|---|
| Airport | Indianapolis International Airport (KIND) |
Arrival
| Time | 2026-05-03 23:58 |
|---|---|
| Airport | Fort Lauderdale Hollywood International Airport (KFLL) |
| Time | Latitude | Longitude | Altitude | Speed | Heading |
|---|---|---|---|---|---|
| 2026-05-03 20:40 | 39.71566 | -86.29321 | 782 ft | 0 kts | 320° |
| 2026-05-03 21:35 | 39.71565 | -86.29320 | 782 ft | 2 kts | 320° |
| 2026-05-03 21:35 | 39.71545 | -86.29300 | 782 ft | 4 kts | 325° |
| 2026-05-03 21:36 | 39.71528 | -86.29283 | 782 ft | 4 kts | 320° |
| 2026-05-03 21:36 | 39.71519 | -86.29273 | 782 ft | 0 kts | 320° |
| 2026-05-03 21:39 | 39.71521 | -86.29275 | 782 ft | 2 kts | 322° |
| 2026-05-03 21:39 | 39.71544 | -86.29258 | 782 ft | 6 kts | 65° |
| 2026-05-03 21:39 | 39.71569 | -86.29177 | 782 ft | 13 kts | 70° |
| 2026-05-03 21:40 | 39.71594 | -86.29043 | 782 ft | 17 kts | 74° |
| 2026-05-03 21:40 | 39.71647 | -86.28932 | 782 ft | 11 kts | 73° |
| 2026-05-03 21:40 | 39.71609 | -86.28839 | 782 ft | 13 kts | 129° |
| 2026-05-03 21:40 | 39.71600 | -86.28726 | 782 ft | 15 kts | 40° |
| 2026-05-03 21:41 | 39.71682 | -86.28628 | 782 ft | 18 kts | 43° |
| 2026-05-03 21:41 | 39.71779 | -86.28506 | 782 ft | 20 kts | 45° |
| 2026-05-03 21:41 | 39.71880 | -86.28373 | 782 ft | 21 kts | 46° |
| 2026-05-03 21:41 | 39.71985 | -86.28237 | 782 ft | 18 kts | 46° |
| 2026-05-03 21:42 | 39.72053 | -86.28146 | 782 ft | 14 kts | 47° |
| 2026-05-03 21:42 | 39.72029 | -86.28038 | 784 ft | 14 kts | 134° |
| 2026-05-03 21:42 | 39.71955 | -86.27989 | 787 ft | 12 kts | 198° |
| 2026-05-03 21:42 | 39.71873 | -86.28088 | 786 ft | 33 kts | 224° |
| 2026-05-03 21:43 | 39.71550 | -86.28498 | 786 ft | 93 kts | 225° |
| 2026-05-03 21:43 | 39.70971 | -86.29233 | 786 ft | 138 kts | 225° |
| 2026-05-03 21:43 | 39.70241 | -86.30173 | 1151 ft | 149 kts | 223° |
| 2026-05-03 21:43 | 39.69500 | -86.31143 | 1783 ft | 154 kts | 221° |
| 2026-05-03 21:44 | 39.68714 | -86.32111 | 2391 ft | 157 kts | 213° |
| 2026-05-03 21:44 | 39.67689 | -86.32631 | 2941 ft | 166 kts | 187° |
| 2026-05-03 21:44 | 39.66460 | -86.32566 | 3274 ft | 185 kts | 182° |
| 2026-05-03 21:44 | 39.65098 | -86.32517 | 3543 ft | 208 kts | 182° |
| 2026-05-03 21:45 | 39.63562 | -86.32482 | 3914 ft | 232 kts | 182° |
| 2026-05-03 21:45 | 39.62471 | -86.32458 | 4337 ft | 240 kts | 182° |
| 2026-05-03 21:45 | 39.60780 | -86.32414 | 5157 ft | 246 kts | 182° |
| 2026-05-03 21:45 | 39.59045 | -86.32363 | 5955 ft | 252 kts | 184° |
| 2026-05-03 21:46 | 39.57263 | -86.32312 | 6700 ft | 260 kts | 186° |
| 2026-05-03 21:46 | 39.55431 | -86.32257 | 7437 ft | 267 kts | 186° |
| 2026-05-03 21:46 | 39.53547 | -86.32200 | 8154 ft | 274 kts | 187° |
| 2026-05-03 21:46 | 39.51616 | -86.32139 | 8859 ft | 281 kts | 188° |
| 2026-05-03 21:47 | 39.49635 | -86.32073 | 9588 ft | 288 kts | 188° |
| 2026-05-03 21:47 | 39.47611 | -86.32005 | 10258 ft | 295 kts | 188° |
| 2026-05-03 21:47 | 39.45484 | -86.31945 | 10517 ft | 317 kts | 188° |
| 2026-05-03 21:47 | 39.43199 | -86.31886 | 10766 ft | 337 kts | 187° |
| 2026-05-03 21:48 | 39.40818 | -86.31812 | 11315 ft | 346 kts | 187° |
| 2026-05-03 21:48 | 39.38387 | -86.31727 | 11944 ft | 351 kts | 186° |
| 2026-05-03 21:48 | 39.35918 | -86.31637 | 12561 ft | 357 kts | 186° |
| 2026-05-03 21:48 | 39.33410 | -86.31471 | 13193 ft | 364 kts | 183° |
| 2026-05-03 21:49 | 39.30868 | -86.31207 | 13818 ft | 370 kts | 182° |
| 2026-05-03 21:49 | 39.28291 | -86.30885 | 14372 ft | 374 kts | 181° |
| 2026-05-03 21:49 | 39.25687 | -86.30546 | 14938 ft | 378 kts | 181° |
| 2026-05-03 21:49 | 39.23058 | -86.30212 | 15507 ft | 381 kts | 182° |
| 2026-05-03 21:50 | 39.20436 | -86.29893 | 16017 ft | 385 kts | 182° |
| 2026-05-03 21:50 | 39.17757 | -86.29581 | 16595 ft | 388 kts | 182° |
| 2026-05-03 21:50 | 39.15022 | -86.29276 | 17165 ft | 391 kts | 182° |
| 2026-05-03 21:50 | 39.12333 | -86.28983 | 17726 ft | 395 kts | 182° |
| 2026-05-03 21:51 | 39.09578 | -86.28685 | 18303 ft | 399 kts | 183° |
| 2026-05-03 21:51 | 39.06799 | -86.28382 | 18815 ft | 402 kts | 182° |
| 2026-05-03 21:51 | 39.03999 | -86.28074 | 19333 ft | 406 kts | 182° |
| 2026-05-03 21:51 | 39.01178 | -86.27760 | 19857 ft | 409 kts | 182° |
| 2026-05-03 21:52 | 38.98332 | -86.27444 | 20385 ft | 412 kts | 182° |
| 2026-05-03 21:52 | 38.95460 | -86.27128 | 20901 ft | 415 kts | 182° |
| 2026-05-03 21:52 | 38.92574 | -86.26811 | 21403 ft | 418 kts | 182° |
| 2026-05-03 21:52 | 38.89661 | -86.26488 | 21901 ft | 422 kts | 182° |
| 2026-05-03 21:53 | 38.86728 | -86.26162 | 22392 ft | 425 kts | 182° |
| 2026-05-03 21:53 | 38.83771 | -86.25834 | 22883 ft | 428 kts | 182° |
| 2026-05-03 21:53 | 38.80789 | -86.25503 | 23368 ft | 432 kts | 182° |
| 2026-05-03 21:53 | 38.77788 | -86.25169 | 23796 ft | 435 kts | 182° |
| 2026-05-03 21:54 | 38.74766 | -86.24836 | 24209 ft | 437 kts | 182° |
| 2026-05-03 21:54 | 38.71733 | -86.24505 | 24624 ft | 439 kts | 182° |
| 2026-05-03 21:54 | 38.68683 | -86.24173 | 25044 ft | 441 kts | 182° |
| 2026-05-03 21:54 | 38.65624 | -86.23840 | 25454 ft | 442 kts | 182° |
| 2026-05-03 21:55 | 38.62550 | -86.23431 | 25854 ft | 448 kts | 177° |
| 2026-05-03 21:55 | 38.59493 | -86.22436 | 26240 ft | 460 kts | 166° |
| 2026-05-03 21:55 | 38.56554 | -86.20728 | 26616 ft | 470 kts | 155° |
| 2026-05-03 21:55 | 38.53848 | -86.18325 | 26986 ft | 479 kts | 143° |
| 2026-05-03 21:56 | 38.51470 | -86.15307 | 27341 ft | 485 kts | 135° |
| 2026-05-03 21:56 | 38.49209 | -86.12095 | 27702 ft | 487 kts | 135° |
| 2026-05-03 21:56 | 38.46935 | -86.08881 | 28044 ft | 489 kts | 135° |
| 2026-05-03 21:56 | 38.44642 | -86.05654 | 28400 ft | 491 kts | 135° |
| 2026-05-03 21:57 | 38.42338 | -86.02419 | 28744 ft | 494 kts | 136° |
| 2026-05-03 21:57 | 38.40024 | -85.99171 | 29079 ft | 496 kts | 136° |
| 2026-05-03 21:57 | 38.37697 | -85.95912 | 29414 ft | 498 kts | 136° |
| 2026-05-03 21:57 | 38.35359 | -85.92634 | 29739 ft | 501 kts | 136° |
| 2026-05-03 21:58 | 38.33011 | -85.89344 | 30054 ft | 503 kts | 136° |
| 2026-05-03 21:58 | 38.30654 | -85.86042 | 30420 ft | 503 kts | 136° |
| 2026-05-03 21:58 | 38.28302 | -85.82749 | 30787 ft | 503 kts | 136° |
| 2026-05-03 21:58 | 38.25946 | -85.79456 | 31165 ft | 503 kts | 136° |
| 2026-05-03 21:59 | 38.23590 | -85.76167 | 31527 ft | 503 kts | 136° |
| 2026-05-03 21:59 | 38.21227 | -85.72873 | 31889 ft | 504 kts | 136° |
| 2026-05-03 21:59 | 38.18865 | -85.69587 | 32265 ft | 504 kts | 136° |
| 2026-05-03 21:59 | 38.16500 | -85.66300 | 32634 ft | 504 kts | 136° |
| 2026-05-03 22:00 | 38.14087 | -85.63089 | 33014 ft | 501 kts | 142° |
| 2026-05-03 22:00 | 38.11390 | -85.60333 | 33385 ft | 494 kts | 152° |
| 2026-05-03 22:00 | 38.08450 | -85.58150 | 33754 ft | 486 kts | 161° |
| 2026-05-03 22:00 | 38.05351 | -85.56553 | 34118 ft | 477 kts | 170° |
| 2026-05-03 22:01 | 38.02172 | -85.55527 | 34449 ft | 468 kts | 176° |
| 2026-05-03 22:01 | 37.98987 | -85.54681 | 34807 ft | 467 kts | 176° |
| 2026-05-03 22:01 | 37.95818 | -85.53829 | 35166 ft | 465 kts | 176° |
| 2026-05-03 22:01 | 37.92666 | -85.52974 | 35528 ft | 462 kts | 176° |
| 2026-05-03 22:02 | 37.89527 | -85.52121 | 35872 ft | 460 kts | 176° |
| 2026-05-03 22:02 | 37.86405 | -85.51274 | 36193 ft | 458 kts | 176° |
| 2026-05-03 22:02 | 37.83292 | -85.50435 | 36519 ft | 456 kts | 176° |
| 2026-05-03 22:02 | 37.80192 | -85.49603 | 36832 ft | 455 kts | 176° |
| 2026-05-03 22:03 | 37.77095 | -85.48776 | 37043 ft | 454 kts | 176° |
| 2026-05-03 22:03 | 37.73993 | -85.47953 | 37072 ft | 458 kts | 176° |
| 2026-05-03 22:03 | 37.67738 | -85.46293 | 37077 ft | 460 kts | 176° |
| 2026-05-03 22:04 | 37.61465 | -85.44610 | 37085 ft | 461 kts | 175° |
| 2026-05-03 22:04 | 37.55193 | -85.42932 | 37130 ft | 461 kts | 176° |
| 2026-05-03 22:05 | 37.48914 | -85.41254 | 37135 ft | 461 kts | 175° |
| 2026-05-03 22:05 | 37.42638 | -85.39578 | 37142 ft | 462 kts | 175° |
| 2026-05-03 22:06 | 37.36386 | -85.37917 | 37152 ft | 462 kts | 175° |
| 2026-05-03 22:06 | 37.30092 | -85.36253 | 37150 ft | 462 kts | 175° |
| 2026-05-03 22:07 | 37.23798 | -85.34590 | 37143 ft | 462 kts | 175° |
| 2026-05-03 22:07 | 37.17506 | -85.32926 | 37148 ft | 462 kts | 175° |
| 2026-05-03 22:08 | 37.11221 | -85.31271 | 37148 ft | 461 kts | 175° |
| 2026-05-03 22:08 | 37.04935 | -85.29614 | 37149 ft | 461 kts | 175° |
| 2026-05-03 22:09 | 36.98660 | -85.27968 | 37156 ft | 461 kts | 175° |
| 2026-05-03 22:10 | 36.89252 | -85.25506 | 37163 ft | 460 kts | 175° |
| 2026-05-03 22:10 | 36.82997 | -85.23862 | 37162 ft | 459 kts | 175° |
| 2026-05-03 22:11 | 36.76745 | -85.22222 | 37165 ft | 458 kts | 175° |
| 2026-05-03 22:11 | 36.70510 | -85.20596 | 37155 ft | 457 kts | 175° |
| 2026-05-03 22:12 | 36.64286 | -85.18980 | 37166 ft | 457 kts | 175° |
| 2026-05-03 22:12 | 36.58074 | -85.17367 | 37159 ft | 456 kts | 175° |
| 2026-05-03 22:13 | 36.51869 | -85.15756 | 37158 ft | 455 kts | 175° |
| 2026-05-03 22:13 | 36.45673 | -85.14154 | 37157 ft | 454 kts | 175° |
| 2026-05-03 22:14 | 36.39488 | -85.12550 | 37163 ft | 453 kts | 175° |
| 2026-05-03 22:14 | 36.33318 | -85.10954 | 37156 ft | 453 kts | 176° |
| 2026-05-03 22:15 | 36.27155 | -85.09374 | 37160 ft | 452 kts | 176° |
| 2026-05-03 22:15 | 36.20999 | -85.07790 | 37156 ft | 452 kts | 176° |
| 2026-05-03 22:16 | 36.14846 | -85.06205 | 37154 ft | 451 kts | 176° |
| 2026-05-03 22:16 | 36.08698 | -85.04624 | 37151 ft | 451 kts | 176° |
| 2026-05-03 22:17 | 36.02559 | -85.03046 | 37151 ft | 450 kts | 176° |
| 2026-05-03 22:17 | 35.96469 | -85.01486 | 37149 ft | 450 kts | 176° |
| 2026-05-03 22:18 | 35.90341 | -84.99931 | 37151 ft | 449 kts | 176° |
| 2026-05-03 22:18 | 35.84220 | -84.98375 | 37150 ft | 449 kts | 176° |
| 2026-05-03 22:19 | 35.78110 | -84.96821 | 37154 ft | 448 kts | 176° |
| 2026-05-03 22:19 | 35.72000 | -84.95266 | 37147 ft | 448 kts | 176° |
| 2026-05-03 22:20 | 35.65893 | -84.93710 | 37152 ft | 448 kts | 176° |
| 2026-05-03 22:20 | 35.59802 | -84.92166 | 37154 ft | 447 kts | 176° |
| 2026-05-03 22:21 | 35.53715 | -84.90625 | 37154 ft | 446 kts | 176° |
| 2026-05-03 22:21 | 35.47627 | -84.89085 | 37139 ft | 446 kts | 176° |
| 2026-05-03 22:22 | 35.41546 | -84.87548 | 37133 ft | 446 kts | 176° |
| 2026-05-03 22:22 | 35.35474 | -84.86015 | 37122 ft | 445 kts | 176° |
| 2026-05-03 22:23 | 35.29408 | -84.84486 | 37114 ft | 444 kts | 177° |
| 2026-05-03 22:23 | 35.23354 | -84.82957 | 37106 ft | 444 kts | 177° |
| 2026-05-03 22:24 | 35.17300 | -84.81436 | 37111 ft | 444 kts | 177° |
| 2026-05-03 22:24 | 35.11257 | -84.79927 | 37107 ft | 443 kts | 177° |
| 2026-05-03 22:25 | 35.05209 | -84.78419 | 37121 ft | 443 kts | 177° |
| 2026-05-03 22:25 | 34.99176 | -84.76911 | 37133 ft | 442 kts | 177° |
| 2026-05-03 22:26 | 34.93151 | -84.75401 | 37147 ft | 442 kts | 177° |
| 2026-05-03 22:26 | 34.87176 | -84.73908 | 37145 ft | 441 kts | 177° |
| 2026-05-03 22:27 | 34.81171 | -84.72413 | 37142 ft | 440 kts | 178° |
| 2026-05-03 22:27 | 34.75179 | -84.70921 | 37139 ft | 439 kts | 178° |
| 2026-05-03 22:28 | 34.69197 | -84.69435 | 37138 ft | 438 kts | 178° |
| 2026-05-03 22:28 | 34.63221 | -84.67959 | 37142 ft | 438 kts | 178° |
| 2026-05-03 22:29 | 34.57251 | -84.66481 | 37139 ft | 437 kts | 178° |
| 2026-05-03 22:29 | 34.51292 | -84.64948 | 37137 ft | 438 kts | 177° |
| 2026-05-03 22:30 | 34.46306 | -84.63624 | 37143 ft | 438 kts | 177° |
| 2026-05-03 22:30 | 34.40356 | -84.62047 | 37146 ft | 437 kts | 178° |
| 2026-05-03 22:31 | 34.34456 | -84.60504 | 37146 ft | 436 kts | 178° |
| 2026-05-03 22:31 | 34.28519 | -84.58967 | 37142 ft | 436 kts | 178° |
| 2026-05-03 22:32 | 34.22592 | -84.57428 | 37146 ft | 435 kts | 178° |
| 2026-05-03 22:32 | 34.16672 | -84.55885 | 37142 ft | 435 kts | 178° |
| 2026-05-03 22:33 | 34.10758 | -84.54346 | 37151 ft | 434 kts | 178° |
| 2026-05-03 22:33 | 34.04854 | -84.52814 | 37152 ft | 434 kts | 179° |
| 2026-05-03 22:34 | 33.98948 | -84.51353 | 37148 ft | 431 kts | 180° |
| 2026-05-03 22:34 | 33.93054 | -84.50074 | 37112 ft | 429 kts | 181° |
| 2026-05-03 22:35 | 33.87172 | -84.48839 | 37111 ft | 429 kts | 181° |
| 2026-05-03 22:35 | 33.81296 | -84.47572 | 37131 ft | 429 kts | 181° |
| 2026-05-03 22:36 | 33.75426 | -84.46266 | 37130 ft | 429 kts | 181° |
| 2026-05-03 22:36 | 33.69562 | -84.44961 | 37127 ft | 428 kts | 181° |
| 2026-05-03 22:37 | 33.63701 | -84.43667 | 37130 ft | 430 kts | 179° |
| 2026-05-03 22:37 | 33.57881 | -84.41484 | 37130 ft | 440 kts | 173° |
| 2026-05-03 22:38 | 33.52077 | -84.39138 | 37133 ft | 440 kts | 173° |
| 2026-05-03 22:38 | 33.46274 | -84.36811 | 37169 ft | 440 kts | 173° |
| 2026-05-03 22:39 | 33.40476 | -84.34494 | 37165 ft | 439 kts | 173° |
| 2026-05-03 22:39 | 33.34676 | -84.32179 | 37167 ft | 439 kts | 173° |
| 2026-05-03 22:40 | 33.28880 | -84.29858 | 37164 ft | 439 kts | 173° |
| 2026-05-03 22:40 | 33.23082 | -84.27535 | 37159 ft | 438 kts | 174° |
| 2026-05-03 22:41 | 33.17293 | -84.25234 | 37143 ft | 438 kts | 174° |
| 2026-05-03 22:41 | 33.11536 | -84.22950 | 37150 ft | 438 kts | 174° |
| 2026-05-03 22:42 | 33.05764 | -84.20653 | 37147 ft | 437 kts | 174° |
| 2026-05-03 22:42 | 32.99953 | -84.18343 | 37148 ft | 437 kts | 174° |
| 2026-05-03 22:43 | 32.94192 | -84.16063 | 37149 ft | 436 kts | 174° |
| 2026-05-03 22:43 | 32.88433 | -84.13787 | 37144 ft | 436 kts | 174° |
| 2026-05-03 22:44 | 32.82676 | -84.11510 | 37138 ft | 436 kts | 174° |
| 2026-05-03 22:44 | 32.76969 | -84.09252 | 37131 ft | 435 kts | 174° |
| 2026-05-03 22:45 | 32.71225 | -84.06991 | 37131 ft | 434 kts | 175° |
| 2026-05-03 22:45 | 32.65484 | -84.04740 | 37130 ft | 434 kts | 175° |
| 2026-05-03 22:46 | 32.59752 | -84.02482 | 37129 ft | 434 kts | 175° |
| 2026-05-03 22:46 | 32.54026 | -84.00225 | 37132 ft | 434 kts | 175° |
| 2026-05-03 22:47 | 32.48299 | -83.97977 | 37130 ft | 433 kts | 175° |
| 2026-05-03 22:47 | 32.42584 | -83.95743 | 37132 ft | 433 kts | 175° |
| 2026-05-03 22:48 | 32.36858 | -83.93508 | 37131 ft | 432 kts | 175° |
| 2026-05-03 22:48 | 32.31146 | -83.91284 | 37129 ft | 432 kts | 175° |
| 2026-05-03 22:49 | 32.25433 | -83.89056 | 37122 ft | 432 kts | 175° |
| 2026-05-03 22:49 | 32.19725 | -83.86833 | 37111 ft | 432 kts | 175° |
| 2026-05-03 22:50 | 32.14020 | -83.84613 | 37117 ft | 431 kts | 175° |
| 2026-05-03 22:50 | 32.08359 | -83.82411 | 37115 ft | 431 kts | 175° |
| 2026-05-03 22:51 | 32.02666 | -83.80206 | 37116 ft | 430 kts | 176° |
| 2026-05-03 22:51 | 31.96972 | -83.78001 | 37123 ft | 430 kts | 176° |
| 2026-05-03 22:52 | 31.91288 | -83.75804 | 37118 ft | 430 kts | 176° |
| 2026-05-03 22:52 | 31.85604 | -83.73609 | 37117 ft | 430 kts | 176° |
| 2026-05-03 22:53 | 31.79926 | -83.71416 | 37114 ft | 430 kts | 176° |
| 2026-05-03 22:53 | 31.74244 | -83.69224 | 37111 ft | 430 kts | 176° |
| 2026-05-03 22:54 | 31.68557 | -83.67039 | 37108 ft | 430 kts | 176° |
| 2026-05-03 22:54 | 31.62871 | -83.64863 | 37108 ft | 430 kts | 176° |
| 2026-05-03 22:55 | 31.57182 | -83.62671 | 37101 ft | 430 kts | 176° |
| 2026-05-03 22:55 | 31.51488 | -83.60490 | 37106 ft | 431 kts | 176° |
| 2026-05-03 22:56 | 31.45782 | -83.58310 | 37100 ft | 431 kts | 176° |
| 2026-05-03 22:56 | 31.40115 | -83.56135 | 37113 ft | 432 kts | 176° |
| 2026-05-03 22:57 | 31.34405 | -83.53945 | 37110 ft | 432 kts | 176° |
| 2026-05-03 22:57 | 31.28685 | -83.51761 | 37105 ft | 432 kts | 176° |
| 2026-05-03 22:58 | 31.22967 | -83.49589 | 37104 ft | 432 kts | 176° |
| 2026-05-03 22:58 | 31.17240 | -83.47410 | 37111 ft | 433 kts | 176° |
| 2026-05-03 22:59 | 31.11514 | -83.45245 | 37103 ft | 433 kts | 176° |
| 2026-05-03 22:59 | 31.05783 | -83.43071 | 37101 ft | 433 kts | 176° |
| 2026-05-03 23:00 | 31.00053 | -83.40894 | 37099 ft | 434 kts | 176° |
| 2026-05-03 23:00 | 30.94313 | -83.38716 | 37103 ft | 434 kts | 176° |
| 2026-05-03 23:01 | 30.88575 | -83.36546 | 37106 ft | 434 kts | 176° |
| 2026-05-03 23:01 | 30.82829 | -83.34381 | 37106 ft | 434 kts | 176° |
| 2026-05-03 23:02 | 30.77083 | -83.32214 | 37088 ft | 434 kts | 176° |
| 2026-05-03 23:02 | 30.71335 | -83.30024 | 37089 ft | 439 kts | 173° |
| 2026-05-03 23:03 | 30.65706 | -83.27076 | 37106 ft | 448 kts | 169° |
| 2026-05-03 23:03 | 30.60042 | -83.24017 | 37104 ft | 449 kts | 169° |
| 2026-05-03 23:04 | 30.54372 | -83.20965 | 37114 ft | 449 kts | 169° |
| 2026-05-03 23:04 | 30.48699 | -83.17910 | 37113 ft | 450 kts | 169° |
| 2026-05-03 23:05 | 30.43017 | -83.14853 | 37121 ft | 450 kts | 169° |
| 2026-05-03 23:05 | 30.37331 | -83.11809 | 37118 ft | 450 kts | 169° |
| 2026-05-03 23:06 | 30.31640 | -83.08766 | 37123 ft | 450 kts | 169° |
| 2026-05-03 23:06 | 30.25953 | -83.05725 | 37124 ft | 451 kts | 169° |
| 2026-05-03 23:07 | 30.20259 | -83.02689 | 37119 ft | 450 kts | 169° |
| 2026-05-03 23:07 | 30.14565 | -82.99658 | 37124 ft | 451 kts | 169° |
| 2026-05-03 23:08 | 30.08877 | -82.96625 | 37122 ft | 450 kts | 169° |
| 2026-05-03 23:08 | 30.03181 | -82.93588 | 37114 ft | 450 kts | 169° |
| 2026-05-03 23:09 | 29.97490 | -82.90570 | 37116 ft | 450 kts | 169° |
| 2026-05-03 23:09 | 29.91796 | -82.87555 | 37108 ft | 450 kts | 169° |
| 2026-05-03 23:10 | 29.86101 | -82.84542 | 37108 ft | 450 kts | 169° |
| 2026-05-03 23:10 | 29.80410 | -82.81531 | 37103 ft | 450 kts | 168° |
| 2026-05-03 23:11 | 29.74722 | -82.78524 | 37112 ft | 450 kts | 168° |
| 2026-05-03 23:11 | 29.69033 | -82.75520 | 37111 ft | 450 kts | 168° |
| 2026-05-03 23:12 | 29.63355 | -82.72524 | 37117 ft | 449 kts | 168° |
| 2026-05-03 23:12 | 29.57671 | -82.69532 | 37117 ft | 449 kts | 168° |
| 2026-05-03 23:13 | 29.51992 | -82.66551 | 37114 ft | 448 kts | 168° |
| 2026-05-03 23:13 | 29.47280 | -82.64076 | 37110 ft | 448 kts | 168° |
| 2026-05-03 23:14 | 29.41619 | -82.61100 | 37111 ft | 447 kts | 168° |
| 2026-05-03 23:14 | 29.35960 | -82.58130 | 37100 ft | 447 kts | 168° |
| 2026-05-03 23:15 | 29.30305 | -82.55175 | 37102 ft | 446 kts | 168° |
| 2026-05-03 23:15 | 29.27461 | -82.53844 | 37101 ft | 435 kts | 175° |
| 2026-05-03 23:15 | 29.24576 | -82.53022 | 37098 ft | 420 kts | 184° |
| 2026-05-03 23:15 | 29.21717 | -82.52710 | 37094 ft | 407 kts | 191° |
| 2026-05-03 23:16 | 29.18899 | -82.52717 | 37095 ft | 404 kts | 192° |
| 2026-05-03 23:16 | 29.13267 | -82.52731 | 37095 ft | 405 kts | 192° |
| 2026-05-03 23:17 | 29.07623 | -82.52724 | 37086 ft | 406 kts | 192° |
| 2026-05-03 23:17 | 29.01974 | -82.52712 | 37087 ft | 406 kts | 192° |
| 2026-05-03 23:18 | 28.96321 | -82.52713 | 37089 ft | 406 kts | 192° |
| 2026-05-03 23:18 | 28.90669 | -82.52713 | 37089 ft | 406 kts | 192° |
| 2026-05-03 23:19 | 28.85014 | -82.52712 | 37089 ft | 407 kts | 192° |
| 2026-05-03 23:19 | 28.79353 | -82.52707 | 37089 ft | 407 kts | 192° |
| 2026-05-03 23:20 | 28.73695 | -82.52706 | 37089 ft | 407 kts | 192° |
| 2026-05-03 23:20 | 28.68028 | -82.52702 | 37088 ft | 407 kts | 192° |
| 2026-05-03 23:21 | 28.62357 | -82.52678 | 37079 ft | 408 kts | 192° |
| 2026-05-03 23:21 | 28.56690 | -82.52674 | 37074 ft | 407 kts | 192° |
| 2026-05-03 23:22 | 28.48186 | -82.52672 | 37077 ft | 408 kts | 192° |
| 2026-05-03 23:22 | 28.42507 | -82.52669 | 37072 ft | 408 kts | 192° |
| 2026-05-03 23:23 | 28.36828 | -82.52668 | 37075 ft | 408 kts | 192° |
| 2026-05-03 23:23 | 28.31157 | -82.52671 | 37070 ft | 408 kts | 192° |
| 2026-05-03 23:24 | 28.25516 | -82.52673 | 37067 ft | 408 kts | 192° |
| 2026-05-03 23:24 | 28.19834 | -82.52670 | 37064 ft | 409 kts | 192° |
| 2026-05-03 23:25 | 28.14143 | -82.52674 | 37066 ft | 409 kts | 192° |
| 2026-05-03 23:25 | 28.08449 | -82.52674 | 37067 ft | 409 kts | 192° |
| 2026-05-03 23:26 | 28.02748 | -82.52667 | 37068 ft | 410 kts | 192° |
| 2026-05-03 23:26 | 27.99864 | -82.52436 | 37066 ft | 423 kts | 182° |
| 2026-05-03 23:26 | 27.96947 | -82.51632 | 37065 ft | 438 kts | 175° |
| 2026-05-03 23:27 | 27.91131 | -82.49548 | 37054 ft | 439 kts | 175° |
| 2026-05-03 23:27 | 27.85318 | -82.47465 | 37140 ft | 436 kts | 176° |
| 2026-05-03 23:28 | 27.82450 | -82.46438 | 37034 ft | 427 kts | 176° |
| 2026-05-03 23:28 | 27.79628 | -82.45429 | 37052 ft | 425 kts | 176° |
| 2026-05-03 23:28 | 27.73975 | -82.43438 | 37053 ft | 425 kts | 177° |
| 2026-05-03 23:29 | 27.68326 | -82.41460 | 37055 ft | 426 kts | 176° |
| 2026-05-03 23:29 | 27.62669 | -82.39463 | 37051 ft | 426 kts | 176° |
| 2026-05-03 23:30 | 27.57001 | -82.37459 | 37055 ft | 427 kts | 176° |
| 2026-05-03 23:30 | 27.51341 | -82.35466 | 37049 ft | 427 kts | 176° |
| 2026-05-03 23:31 | 27.45661 | -82.33470 | 37046 ft | 427 kts | 176° |
| 2026-05-03 23:31 | 27.39984 | -82.31468 | 37040 ft | 428 kts | 176° |
| 2026-05-03 23:32 | 27.37201 | -82.30276 | 37042 ft | 442 kts | 167° |
| 2026-05-03 23:32 | 27.34464 | -82.28606 | 37035 ft | 450 kts | 163° |
| 2026-05-03 23:32 | 27.31715 | -82.26860 | 36717 ft | 455 kts | 163° |
| 2026-05-03 23:32 | 27.28975 | -82.25117 | 36457 ft | 452 kts | 163° |
| 2026-05-03 23:33 | 27.26241 | -82.23378 | 36208 ft | 452 kts | 163° |
| 2026-05-03 23:33 | 27.23508 | -82.21637 | 35963 ft | 452 kts | 163° |
| 2026-05-03 23:33 | 27.20772 | -82.19898 | 35719 ft | 452 kts | 163° |
| 2026-05-03 23:33 | 27.18038 | -82.18166 | 35479 ft | 452 kts | 163° |
| 2026-05-03 23:34 | 27.15299 | -82.16434 | 35240 ft | 452 kts | 163° |
| 2026-05-03 23:34 | 27.12560 | -82.14701 | 35015 ft | 452 kts | 162° |
| 2026-05-03 23:34 | 27.09811 | -82.12964 | 34443 ft | 456 kts | 162° |
| 2026-05-03 23:34 | 27.07029 | -82.11212 | 33588 ft | 461 kts | 162° |
| 2026-05-03 23:35 | 27.04245 | -82.09452 | 32993 ft | 456 kts | 161° |
| 2026-05-03 23:35 | 27.01486 | -82.07699 | 32155 ft | 456 kts | 161° |
| 2026-05-03 23:35 | 26.98710 | -82.05929 | 31611 ft | 463 kts | 159° |
| 2026-05-03 23:35 | 26.96036 | -82.03852 | 31015 ft | 473 kts | 150° |
| 2026-05-03 23:36 | 26.93598 | -82.01330 | 30472 ft | 481 kts | 142° |
| 2026-05-03 23:36 | 26.91306 | -81.98601 | 29866 ft | 480 kts | 141° |
| 2026-05-03 23:36 | 26.89028 | -81.95891 | 29323 ft | 476 kts | 141° |
| 2026-05-03 23:36 | 26.86766 | -81.93206 | 28770 ft | 472 kts | 141° |
| 2026-05-03 23:37 | 26.84519 | -81.90544 | 28231 ft | 468 kts | 142° |
| 2026-05-03 23:37 | 26.82291 | -81.87915 | 27691 ft | 463 kts | 142° |
| 2026-05-03 23:37 | 26.80082 | -81.85313 | 27167 ft | 459 kts | 142° |
| 2026-05-03 23:37 | 26.77886 | -81.82731 | 26625 ft | 456 kts | 142° |
| 2026-05-03 23:38 | 26.75706 | -81.80175 | 26091 ft | 452 kts | 142° |
| 2026-05-03 23:38 | 26.73538 | -81.77645 | 25558 ft | 449 kts | 142° |
| 2026-05-03 23:38 | 26.71380 | -81.75140 | 25074 ft | 445 kts | 142° |
| 2026-05-03 23:38 | 26.69237 | -81.72657 | 24565 ft | 443 kts | 142° |
| 2026-05-03 23:39 | 26.67119 | -81.70201 | 24069 ft | 434 kts | 142° |
| 2026-05-03 23:39 | 26.65038 | -81.67782 | 23526 ft | 431 kts | 142° |
| 2026-05-03 23:39 | 26.62993 | -81.65332 | 22983 ft | 433 kts | 137° |
| 2026-05-03 23:39 | 26.61151 | -81.62652 | 22528 ft | 432 kts | 134° |
| 2026-05-03 23:40 | 26.59356 | -81.59980 | 21904 ft | 428 kts | 134° |
| 2026-05-03 23:40 | 26.57582 | -81.57339 | 21386 ft | 422 kts | 134° |
| 2026-05-03 23:40 | 26.57012 | -81.56488 | 21219 ft | 420 kts | 134° |
| 2026-05-03 23:40 | 26.54097 | -81.52154 | 20357 ft | 415 kts | 133° |
| 2026-05-03 23:41 | 26.52360 | -81.49580 | 19833 ft | 414 kts | 133° |
| 2026-05-03 23:41 | 26.50636 | -81.47027 | 19413 ft | 410 kts | 133° |
| 2026-05-03 23:41 | 26.48919 | -81.44484 | 18984 ft | 407 kts | 133° |
| 2026-05-03 23:41 | 26.47226 | -81.41973 | 18555 ft | 403 kts | 133° |
| 2026-05-03 23:42 | 26.45555 | -81.39492 | 17846 ft | 399 kts | 133° |
| 2026-05-03 23:42 | 26.43896 | -81.37032 | 17259 ft | 392 kts | 133° |
| 2026-05-03 23:42 | 26.42262 | -81.34611 | 16786 ft | 390 kts | 132° |
| 2026-05-03 23:42 | 26.40628 | -81.32214 | 16305 ft | 386 kts | 133° |
| 2026-05-03 23:43 | 26.38957 | -81.29887 | 15826 ft | 383 kts | 134° |
| 2026-05-03 23:43 | 26.37258 | -81.27618 | 15355 ft | 380 kts | 135° |
| 2026-05-03 23:43 | 26.35550 | -81.25383 | 14884 ft | 378 kts | 135° |
| 2026-05-03 23:43 | 26.33868 | -81.23188 | 14421 ft | 376 kts | 135° |
| 2026-05-03 23:44 | 26.32182 | -81.20974 | 13968 ft | 374 kts | 135° |
| 2026-05-03 23:44 | 26.30511 | -81.18767 | 13480 ft | 371 kts | 134° |
| 2026-05-03 23:44 | 26.28862 | -81.16574 | 13006 ft | 368 kts | 134° |
| 2026-05-03 23:44 | 26.27228 | -81.14398 | 12576 ft | 364 kts | 134° |
| 2026-05-03 23:45 | 26.25604 | -81.12249 | 12085 ft | 361 kts | 134° |
| 2026-05-03 23:45 | 26.23985 | -81.10123 | 11639 ft | 358 kts | 134° |
| 2026-05-03 23:45 | 26.22377 | -81.08018 | 11205 ft | 355 kts | 134° |
| 2026-05-03 23:45 | 26.20783 | -81.05930 | 10758 ft | 352 kts | 134° |
| 2026-05-03 23:46 | 26.19206 | -81.03859 | 10405 ft | 344 kts | 134° |
| 2026-05-03 23:46 | 26.17719 | -81.01897 | 10242 ft | 321 kts | 134° |
| 2026-05-03 23:46 | 26.16301 | -81.00022 | 9820 ft | 311 kts | 133° |
| 2026-05-03 23:46 | 26.15142 | -80.98052 | 9969 ft | 310 kts | 120° |
| 2026-05-03 23:47 | 26.14353 | -80.95789 | 9867 ft | 319 kts | 107° |
| 2026-05-03 23:47 | 26.13908 | -80.93341 | 9431 ft | 321 kts | 102° |
| 2026-05-03 23:47 | 26.13515 | -80.90921 | 8980 ft | 315 kts | 101° |
| 2026-05-03 23:47 | 26.13133 | -80.88541 | 8513 ft | 312 kts | 101° |
| 2026-05-03 23:48 | 26.12748 | -80.86161 | 8127 ft | 313 kts | 101° |
| 2026-05-03 23:48 | 26.12360 | -80.83795 | 7811 ft | 310 kts | 102° |
| 2026-05-03 23:48 | 26.11970 | -80.81437 | 7498 ft | 308 kts | 102° |
| 2026-05-03 23:48 | 26.11579 | -80.79088 | 7122 ft | 308 kts | 102° |
| 2026-05-03 23:49 | 26.11190 | -80.76761 | 6880 ft | 304 kts | 102° |
| 2026-05-03 23:49 | 26.10806 | -80.74470 | 6692 ft | 300 kts | 102° |
| 2026-05-03 23:49 | 26.10422 | -80.72193 | 6534 ft | 298 kts | 102° |
| 2026-05-03 23:49 | 26.10039 | -80.69935 | 6372 ft | 297 kts | 102° |
| 2026-05-03 23:50 | 26.09655 | -80.67678 | 6215 ft | 296 kts | 102° |
| 2026-05-03 23:50 | 26.09404 | -80.66188 | 6109 ft | 295 kts | 102° |
| 2026-05-03 23:50 | 26.08899 | -80.63189 | 5906 ft | 294 kts | 102° |
| 2026-05-03 23:50 | 26.08523 | -80.60963 | 5756 ft | 292 kts | 102° |
| 2026-05-03 23:51 | 26.08149 | -80.58749 | 5597 ft | 291 kts | 101° |
| 2026-05-03 23:51 | 26.07775 | -80.56542 | 5446 ft | 289 kts | 102° |
| 2026-05-03 23:51 | 26.07403 | -80.54345 | 5289 ft | 288 kts | 101° |
| 2026-05-03 23:51 | 26.07011 | -80.52168 | 5142 ft | 287 kts | 103° |
| 2026-05-03 23:52 | 26.06728 | -80.50052 | 4989 ft | 281 kts | 94° |
| 2026-05-03 23:52 | 26.06703 | -80.47901 | 4799 ft | 275 kts | 89° |
| 2026-05-03 23:52 | 26.06724 | -80.45790 | 4610 ft | 269 kts | 90° |
| 2026-05-03 23:52 | 26.06723 | -80.43773 | 4435 ft | 252 kts | 91° |
| 2026-05-03 23:53 | 26.06714 | -80.41872 | 4297 ft | 241 kts | 90° |
| 2026-05-03 23:53 | 26.06706 | -80.40010 | 4118 ft | 239 kts | 90° |
| 2026-05-03 23:53 | 26.06698 | -80.38171 | 3833 ft | 238 kts | 90° |
| 2026-05-03 23:53 | 26.06690 | -80.36328 | 3527 ft | 238 kts | 91° |
| 2026-05-03 23:54 | 26.06683 | -80.34498 | 3215 ft | 234 kts | 90° |
| 2026-05-03 23:54 | 26.06675 | -80.32747 | 2925 ft | 225 kts | 90° |
| 2026-05-03 23:54 | 26.06667 | -80.31021 | 2639 ft | 216 kts | 90° |
| 2026-05-03 23:54 | 26.06659 | -80.29384 | 2363 ft | 207 kts | 90° |
| 2026-05-03 23:55 | 26.06651 | -80.27821 | 2124 ft | 200 kts | 90° |
| 2026-05-03 23:55 | 26.06644 | -80.26296 | 1839 ft | 193 kts | 89° |
| 2026-05-03 23:55 | 26.06636 | -80.24868 | 1592 ft | 179 kts | 89° |
| 2026-05-03 23:55 | 26.06629 | -80.23529 | 1368 ft | 164 kts | 89° |
| 2026-05-03 23:56 | 26.06623 | -80.22333 | 1186 ft | 151 kts | 89° |
| 2026-05-03 23:56 | 26.06617 | -80.21195 | 958 ft | 144 kts | 88° |
| 2026-05-03 23:56 | 26.06611 | -80.20090 | 773 ft | 141 kts | 88° |
| 2026-05-03 23:56 | 26.06601 | -80.18993 | 558 ft | 142 kts | 89° |
| 2026-05-03 23:57 | 26.06588 | -80.17903 | 385 ft | 141 kts | 86° |
| 2026-05-03 23:57 | 26.06589 | -80.16822 | 224 ft | 140 kts | 86° |
| 2026-05-03 23:57 | 26.06591 | -80.16103 | 109 ft | 141 kts | 88° |
| 2026-05-03 23:57 | 26.06588 | -80.15056 | 19 ft | 119 kts | 89° |
| 2026-05-03 23:58 | 26.06583 | -80.14472 | 44 ft | 38 kts | 90° |
| 2026-05-03 23:58 | 26.06615 | -80.14242 | 53 ft | 22 kts | 58° |
| 2026-05-03 23:58 | 26.06680 | -80.14262 | 49 ft | 16 kts | 282° |
| 2026-05-03 23:58 | 26.06678 | -80.14397 | 48 ft | 19 kts | 271° |
| 2026-05-03 23:59 | 26.06678 | -80.14529 | 43 ft | 14 kts | 270° |
| 2026-05-03 23:59 | 26.06675 | -80.14665 | 33 ft | 22 kts | 267° |
| 2026-05-03 23:59 | 26.06677 | -80.14801 | 22 ft | 15 kts | 272° |
| 2026-05-03 23:59 | 26.06703 | -80.14910 | 18 ft | 7 kts | 299° |
| 2026-05-04 00:00 | 26.06753 | -80.14920 | 15 ft | 9 kts | 29° |
| 2026-05-04 00:00 | 26.06766 | -80.14846 | 15 ft | 12 kts | 89° |
| 2026-05-04 00:00 | 26.06767 | -80.14745 | 15 ft | 14 kts | 91° |
| 2026-05-04 00:00 | 26.06766 | -80.14626 | 15 ft | 14 kts | 88° |
| 2026-05-04 00:01 | 26.06809 | -80.14565 | 17 ft | 11 kts | 56° |
| 2026-05-04 00:01 | 26.06833 | -80.14516 | 16 ft | 5 kts | 21° |
| 2026-05-04 00:01 | 26.06870 | -80.14516 | 16 ft | 3 kts | 1° |
| 2026-05-04 00:01 | 26.06884 | -80.14516 | 16 ft | 0 kts | 358° |